Time;durP1;ratioP1;P1;durP2;ratioP2;P2;SDS_P1;SDS_P2;PMS_P1;PMS_P2;Temp;Humidity;BMP_temperature;BMP_pressure;BME280_temperature;BME280_humidity;BME280_pressure;Samples;Min_cycle;Max_cycle;Signal;HPM_P1;HPM_P2
2023/05/27 00:02:41;;;;;;;;;;;;;;;12.98;56.37;99647.86;67953;1275;1016382;-69
2023/05/27 00:05:45;;;;;;;;;;;;;;;12.95;56.54;99649.98;67976;1275;1017709;-71
2023/05/27 00:08:49;;;;;;;;;;;;;;;13.08;56.25;99651.54;67953;1275;1016381;-71
2023/05/27 00:11:52;;;;;;;;;;;;;;;13.10;56.26;99652.98;67941;1275;1016498;-71
2023/05/27 00:14:56;;;;;;;;;;;;;;;13.13;56.45;99658.08;67912;1275;1016191;-71
2023/05/27 00:18:02;;;;;;;;;;;;;;;13.25;55.98;99653.70;65359;1275;6372155;-68
2023/05/27 00:21:05;;;;;;;;;;;;;;;13.13;56.18;99655.29;67957;1275;1017456;-66
2023/05/27 00:24:09;;;;;;;;;;;;;;;13.06;56.66;99649.18;67922;1275;1016481;-71
2023/05/27 00:27:19;;;;;;;;;;;;;;;12.89;57.27;99652.47;67948;1275;1016429;-72
2023/05/27 00:30:24;;;;;;;;;;;;;;;12.86;57.24;99654.01;67955;1275;1016340;-62
2023/05/27 00:33:26;;;;;;;;;;;;;;;12.81;57.31;99657.48;67908;1275;1015797;-71
2023/05/27 00:36:31;;;;;;;;;;;;;;;12.39;58.96;99663.85;67926;1275;1016591;-66
2023/05/27 00:39:35;;;;;;;;;;;;;;;12.54;58.51;99661.63;67968;1275;1016500;-62
2023/05/27 00:42:38;;;;;;;;;;;;;;;12.44;58.92;99660.42;67931;1275;1016412;-71
2023/05/27 00:45:41;;;;;;;;;;;;;;;12.27;59.36;99662.17;67971;1275;1016267;-64
2023/05/27 00:48:45;;;;;;;;;;;;;;;12.22;59.37;99665.66;67966;1275;1016279;-62
2023/05/27 00:51:49;;;;;;;;;;;;;;;12.16;59.86;99671.23;67951;1275;1016433;-65
2023/05/27 00:54:56;;;;;;;;;;;;;;;11.91;60.43;99677.08;67956;1275;1016319;-65
2023/05/27 00:57:59;;;;;;;;;;;;;;;11.77;60.72;99675.69;67970;1275;1016445;-71
2023/05/27 01:01:03;;;;;;;;;;;;;;;11.74;61.18;99679.03;67946;1275;1016441;-67
2023/05/27 01:04:12;;;;;;;;;;;;;;;11.73;61.07;99677.30;67933;1275;1016455;-62
2023/05/27 01:07:17;;;;;;;;;;;;;;;11.84;61.03;99674.83;67961;1275;1016559;-71
2023/05/27 01:10:19;;;;;;;;;;;;;;;11.91;60.86;99678.84;67973;1275;1016851;-71
2023/05/27 01:13:32;;;;;;;;;;;;;;;12.00;60.68;99683.82;67972;1275;1019955;-61
2023/05/27 01:16:34;;;;;;;;;;;;;;;12.06;61.06;99684.73;67943;1275;1016567;-62
2023/05/27 01:19:37;;;;;;;;;;;;;;;12.13;60.57;99683.48;67935;1275;1019177;-70
2023/05/27 01:22:42;;;;;;;;;;;;;;;12.16;60.49;99685.80;67935;1275;1016852;-68
2023/05/27 01:25:45;;;;;;;;;;;;;;;12.12;60.22;99688.59;67954;1275;1016651;-72
2023/05/27 01:28:49;;;;;;;;;;;;;;;12.21;60.10;99691.13;67932;1275;1016374;-64
2023/05/27 01:31:53;;;;;;;;;;;;;;;12.22;60.04;99687.71;67948;1275;1016608;-62
2023/05/27 01:34:57;;;;;;;;;;;;;;;12.25;59.82;99685.98;67966;1275;1016326;-63
2023/05/27 01:38:00;;;;;;;;;;;;;;;12.28;59.97;99685.32;67879;1275;1016207;-62
2023/05/27 01:41:06;;;;;;;;;;;;;;;12.22;60.33;99687.38;67985;1275;1016515;-72
2023/05/27 01:44:10;;;;;;;;;;;;;;;12.11;61.33;99686.94;67975;1275;1016279;-72
2023/05/27 01:47:13;;;;;;;;;;;;;;;12.13;61.51;99686.25;67953;1275;1016174;-71
2023/05/27 01:50:17;;;;;;;;;;;;;;;12.04;61.98;99677.46;67982;1275;1016244;-72
2023/05/27 01:53:20;;;;;;;;;;;;;;;11.89;62.45;99677.50;67991;1275;1016285;-72
2023/05/27 01:56:24;;;;;;;;;;;;;;;11.94;62.27;99681.52;67974;1275;1016454;-69
2023/05/27 01:59:27;;;;;;;;;;;;;;;11.90;62.43;99682.91;67941;1275;1016952;-71
2023/05/27 02:02:31;;;;;;;;;;;;;;;11.80;62.96;99685.18;67925;1275;1016251;-71
2023/05/27 02:05:36;;;;;;;;;;;;;;;11.83;62.51;99684.50;67981;1275;1016521;-62
2023/05/27 02:08:40;;;;;;;;;;;;;;;11.71;63.03;99685.12;67979;1275;1016584;-62
2023/05/27 02:11:44;;;;;;;;;;;;;;;11.60;63.68;99685.69;67935;1275;1016373;-66
2023/05/27 02:14:48;;;;;;;;;;;;;;;11.53;63.67;99686.38;67912;1275;1019349;-63
2023/05/27 02:17:54;;;;;;;;;;;;;;;11.67;63.34;99685.87;67982;1275;1018565;-72
2023/05/27 02:20:58;;;;;;;;;;;;;;;11.62;63.85;99683.64;67934;1275;1016434;-64
2023/05/27 02:24:01;;;;;;;;;;;;;;;11.62;64.35;99688.06;67966;1275;1016320;-72
2023/05/27 02:27:05;;;;;;;;;;;;;;;11.47;64.47;99694.42;67946;1275;1016513;-67
2023/05/27 02:30:08;;;;;;;;;;;;;;;11.34;64.87;99697.48;67950;1275;1016400;-72
2023/05/27 02:33:11;;;;;;;;;;;;;;;11.30;65.44;99702.94;67947;1275;1016475;-71
2023/05/27 02:36:15;;;;;;;;;;;;;;;11.30;64.74;99702.25;67938;1275;1016441;-62
2023/05/27 02:39:17;;;;;;;;;;;;;;;11.30;64.77;99705.04;67926;1275;1016558;-69
2023/05/27 02:42:20;;;;;;;;;;;;;;;11.25;65.03;99708.09;67971;1275;1016712;-72
2023/05/27 02:45:23;;;;;;;;;;;;;;;11.21;64.97;99705.70;67942;1275;1016320;-61
2023/05/27 02:48:26;;;;;;;;;;;;;;;11.21;64.82;99714.09;67906;1275;1016335;-63
2023/05/27 02:51:29;;;;;;;;;;;;;;;11.24;64.86;99709.70;67985;1275;1016352;-62
2023/05/27 02:54:32;;;;;;;;;;;;;;;11.20;65.11;99712.89;67883;1270;1016481;-66
2023/05/27 02:57:35;;;;;;;;;;;;;;;11.23;65.06;99715.05;67925;1272;1016765;-64
2023/05/27 03:00:38;;;;;;;;;;;;;;;11.27;64.77;99716.04;67925;1272;1016425;-63
2023/05/27 03:03:41;;;;;;;;;;;;;;;11.27;64.50;99721.64;67931;1275;1016456;-72
2023/05/27 03:06:44;;;;;;;;;;;;;;;11.23;65.65;99721.18;67879;1275;1016477;-65
2023/05/27 03:09:47;;;;;;;;;;;;;;;11.32;65.04;99719.33;67989;1275;1016277;-63
2023/05/27 03:12:50;;;;;;;;;;;;;;;11.40;65.00;99724.33;67957;1275;1018789;-72
2023/05/27 03:15:54;;;;;;;;;;;;;;;11.38;64.95;99727.63;67997;1275;1018155;-63
2023/05/27 03:18:57;;;;;;;;;;;;;;;11.39;64.81;99730.02;67980;1275;1016200;-72
2023/05/27 03:22:00;;;;;;;;;;;;;;;11.49;64.65;99739.66;67939;1275;1016354;-72
2023/05/27 03:25:04;;;;;;;;;;;;;;;11.60;64.51;99743.17;68010;1275;1016712;-63
2023/05/27 03:28:07;;;;;;;;;;;;;;;11.67;64.50;99744.20;68011;1275;1016008;-64
2023/05/27 03:31:12;;;;;;;;;;;;;;;11.73;64.24;99749.86;67975;1275;1017244;-72
2023/05/27 03:34:15;;;;;;;;;;;;;;;11.86;64.10;99753.92;67994;1275;1016819;-69
2023/05/27 03:37:18;;;;;;;;;;;;;;;12.00;63.81;99753.73;67918;1275;1016385;-65
2023/05/27 03:40:21;;;;;;;;;;;;;;;12.29;63.00;99759.94;68019;1275;1016026;-63
2023/05/27 03:43:24;;;;;;;;;;;;;;;12.54;62.40;99761.61;67994;1275;1016192;-71
2023/05/27 03:46:27;;;;;;;;;;;;;;;12.74;62.02;99757.86;67981;1275;1016395;-72
2023/05/27 03:49:30;;;;;;;;;;;;;;;12.80;61.67;99760.33;68011;1275;1016509;-69
2023/05/27 03:52:36;;;;;;;;;;;;;;;12.86;61.57;99765.14;67995;1275;1016034;-70
2023/05/27 03:55:39;;;;;;;;;;;;;;;12.92;61.52;99767.77;67945;1275;1016127;-62
2023/05/27 03:58:45;;;;;;;;;;;;;;;13.10;61.07;99765.39;68004;1275;1016598;-72
2023/05/27 04:01:49;;;;;;;;;;;;;;;13.27;60.90;99760.23;67970;1275;1016455;-73
2023/05/27 04:04:53;;;;;;;;;;;;;;;13.36;60.72;99757.56;67953;1275;1016478;-63
2023/05/27 04:07:57;;;;;;;;;;;;;;;13.54;60.21;99761.33;67876;1275;1016281;-69
2023/05/27 04:11:00;;;;;;;;;;;;;;;13.69;60.04;99762.00;67859;1275;1016689;-62
2023/05/27 04:14:06;;;;;;;;;;;;;;;13.93;59.71;99763.08;67872;1275;1016342;-66
2023/05/27 04:17:10;;;;;;;;;;;;;;;14.02;58.85;99770.23;67911;1275;1016529;-70
2023/05/27 04:20:14;;;;;;;;;;;;;;;14.01;59.78;99773.86;67880;1275;1016368;-64
2023/05/27 04:23:18;;;;;;;;;;;;;;;14.00;58.48;99776.37;68000;1275;1016210;-63
2023/05/27 04:26:21;;;;;;;;;;;;;;;13.99;59.25;99774.46;67961;1275;1016205;-63
2023/05/27 04:29:27;;;;;;;;;;;;;;;14.15;59.29;99773.33;67979;1275;1016990;-72
2023/05/27 04:32:32;;;;;;;;;;;;;;;14.18;58.53;99770.86;67969;1275;1016469;-63
2023/05/27 04:35:34;;;;;;;;;;;;;;;14.22;58.32;99771.52;67975;1275;1017111;-63
2023/05/27 04:38:38;;;;;;;;;;;;;;;14.25;58.51;99773.06;67980;1275;1016390;-73
2023/05/27 04:41:41;;;;;;;;;;;;;;;14.37;59.01;99770.41;67974;1275;1016326;-62
2023/05/27 04:44:44;;;;;;;;;;;;;;;14.49;58.06;99769.85;67999;1275;1016314;-63
2023/05/27 04:47:46;;;;;;;;;;;;;;;14.52;57.41;99772.85;67939;1275;1015815;-72
2023/05/27 04:50:53;;;;;;;;;;;;;;;14.58;57.48;99769.33;68000;1275;1016494;-72
2023/05/27 04:53:56;;;;;;;;;;;;;;;14.66;57.60;99773.05;68016;1275;1016276;-72
2023/05/27 04:56:59;;;;;;;;;;;;;;;14.79;56.69;99774.86;67960;1275;1016315;-72
2023/05/27 05:03:36;;;;;;;;;;;;;;;14.80;55.48;99782.95;67981;1275;1016476;-72
2023/05/27 05:06:39;;;;;;;;;;;;;;;14.88;56.32;99773.41;67962;1275;1016430;-73
2023/05/27 05:09:41;;;;;;;;;;;;;;;15.16;56.73;99777.42;67958;1275;1016176;-72
2023/05/27 05:12:45;;;;;;;;;;;;;;;15.58;56.19;99773.85;67971;1275;1019441;-64
2023/05/27 05:15:47;;;;;;;;;;;;;;;15.73;55.76;99777.62;67900;1275;1016424;-72
2023/05/27 05:18:50;;;;;;;;;;;;;;;15.88;54.99;99783.88;67972;1275;1016292;-62
2023/05/27 05:21:53;;;;;;;;;;;;;;;16.19;54.76;99783.50;67981;1275;1016337;-68
2023/05/27 05:24:56;;;;;;;;;;;;;;;16.32;53.89;99780.71;68020;1275;1016067;-63
2023/05/27 05:27:59;;;;;;;;;;;;;;;16.38;53.42;99785.36;67920;1275;1016426;-72
2023/05/27 05:31:01;;;;;;;;;;;;;;;16.35;52.82;99784.35;67982;1275;1017336;-70
2023/05/27 05:34:05;;;;;;;;;;;;;;;16.49;52.41;99785.83;68019;1275;1016317;-71
2023/05/27 05:37:07;;;;;;;;;;;;;;;16.59;52.89;99789.40;67970;1275;1016457;-72
2023/05/27 05:40:10;;;;;;;;;;;;;;;16.88;52.52;99789.61;68039;1275;1016406;-73
2023/05/27 05:43:13;;;;;;;;;;;;;;;17.03;51.74;99791.27;67982;1275;1017076;-68
2023/05/27 05:46:16;;;;;;;;;;;;;;;17.28;52.62;99795.61;67955;1275;1016481;-63
2023/05/27 05:49:19;;;;;;;;;;;;;;;17.58;51.11;99794.66;67959;1275;1016270;-71
2023/05/27 05:52:22;;;;;;;;;;;;;;;17.76;50.23;99795.02;67996;1275;1016143;-73
2023/05/27 05:55:25;;;;;;;;;;;;;;;17.75;50.33;99794.24;67987;1275;1016289;-66
2023/05/27 05:58:32;;;;;;;;;;;;;;;17.80;49.96;99800.25;67964;1275;1016462;-62
2023/05/27 06:01:35;;;;;;;;;;;;;;;17.86;49.92;99798.19;67942;1275;1016335;-66
2023/05/27 06:04:38;;;;;;;;;;;;;;;17.96;49.14;99796.88;68014;1275;1016409;-73
2023/05/27 06:07:42;;;;;;;;;;;;;;;18.01;49.22;99794.77;67925;1275;1016408;-62
2023/05/27 06:10:46;;;;;;;;;;;;;;;18.18;49.45;99790.50;68004;1275;1016238;-63
2023/05/27 06:13:49;;;;;;;;;;;;;;;18.33;48.73;99790.70;68037;1275;1016316;-62
2023/05/27 06:16:52;;;;;;;;;;;;;;;18.51;48.12;99797.27;68028;1275;1016481;-73
2023/05/27 06:19:55;;;;;;;;;;;;;;;18.58;48.11;99799.60;68011;1275;1016442;-63
2023/05/27 06:22:59;;;;;;;;;;;;;;;18.54;47.60;99796.39;67994;1275;1016584;-72
2023/05/27 06:26:02;;;;;;;;;;;;;;;18.49;47.42;99795.55;67986;1275;1016400;-73
2023/05/27 06:29:06;;;;;;;;;;;;;;;18.62;47.40;99792.94;68052;1273;1016478;-70
2023/05/27 06:32:09;;;;;;;;;;;;;;;18.98;47.27;99796.05;68008;1275;1016390;-73
2023/05/27 06:35:14;;;;;;;;;;;;;;;19.16;46.29;99798.22;68005;1275;1016203;-73
2023/05/27 06:38:17;;;;;;;;;;;;;;;19.04;45.91;99799.51;67977;1275;1016641;-63
2023/05/27 06:41:20;;;;;;;;;;;;;;;19.23;45.03;99802.55;68007;1275;1016425;-73
2023/05/27 06:44:24;;;;;;;;;;;;;;;19.42;46.48;99799.65;68019;1275;1018549;-73
2023/05/27 06:47:26;;;;;;;;;;;;;;;19.77;45.76;99804.39;68021;1275;1019828;-65
2023/05/27 06:50:32;;;;;;;;;;;;;;;19.68;44.14;99805.98;67958;1275;1016362;-70
2023/05/27 06:53:36;;;;;;;;;;;;;;;19.34;44.43;99802.39;67992;1275;1016399;-64
2023/05/27 06:56:39;;;;;;;;;;;;;;;19.27;44.93;99800.51;67980;1275;1016302;-69
2023/05/27 06:59:42;;;;;;;;;;;;;;;19.25;44.49;99796.02;67993;1275;1016486;-68
2023/05/27 07:02:46;;;;;;;;;;;;;;;19.28;44.35;99794.05;68041;1275;1016387;-68
2023/05/27 07:05:49;;;;;;;;;;;;;;;19.45;45.35;99797.05;67994;1275;1016478;-65
2023/05/27 07:08:53;;;;;;;;;;;;;;;19.71;45.04;99795.07;67970;1275;1016396;-66
2023/05/27 07:11:56;;;;;;;;;;;;;;;19.95;43.94;99796.64;68023;1275;1016091;-66
2023/05/27 07:15:00;;;;;;;;;;;;;;;20.12;44.03;99797.14;67973;1275;1016424;-68
2023/05/27 07:18:03;;;;;;;;;;;;;;;20.38;43.70;99809.14;68005;1275;1016113;-70
2023/05/27 07:21:07;;;;;;;;;;;;;;;20.34;42.70;99809.15;67982;1275;1018004;-73
2023/05/27 07:24:10;;;;;;;;;;;;;;;20.38;42.77;99806.86;68026;1275;1016459;-73
2023/05/27 07:27:14;;;;;;;;;;;;;;;20.39;42.30;99809.40;68010;1275;1016041;-73
2023/05/27 07:30:17;;;;;;;;;;;;;;;20.36;41.22;99807.17;67943;1275;1016084;-74
2023/05/27 07:33:21;;;;;;;;;;;;;;;20.31;42.27;99801.57;68001;1275;1016485;-72
2023/05/27 07:36:24;;;;;;;;;;;;;;;20.32;41.66;99807.77;67994;1275;1016341;-73
2023/05/27 07:39:28;;;;;;;;;;;;;;;20.37;40.70;99809.45;67973;1275;1016574;-72
2023/05/27 07:42:31;;;;;;;;;;;;;;;20.32;40.46;99806.87;67993;1275;1016411;-73
2023/05/27 07:45:35;;;;;;;;;;;;;;;20.46;41.26;99802.96;67989;1275;1016112;-72
2023/05/27 07:48:39;;;;;;;;;;;;;;;20.61;40.58;99803.05;68023;1275;1019588;-66
2023/05/27 07:51:42;;;;;;;;;;;;;;;20.61;39.37;99799.88;67998;1275;1016466;-64
2023/05/27 07:54:45;;;;;;;;;;;;;;;20.50;39.03;99793.23;68002;1275;1016420;-73
2023/05/27 07:57:48;;;;;;;;;;;;;;;20.64;37.87;99793.59;67973;1275;1016419;-71
2023/05/27 08:00:51;;;;;;;;;;;;;;;20.86;38.72;99789.73;67993;1275;1016467;-73
2023/05/27 08:03:54;;;;;;;;;;;;;;;21.12;38.48;99783.34;67960;1275;1016498;-72
2023/05/27 08:06:58;;;;;;;;;;;;;;;21.25;38.19;99782.71;68007;1275;1016805;-67
2023/05/27 08:10:02;;;;;;;;;;;;;;;21.36;37.84;99778.86;67931;1275;1017367;-73
2023/05/27 08:13:05;;;;;;;;;;;;;;;21.52;38.07;99780.27;67995;1275;1016537;-74
2023/05/27 08:16:08;;;;;;;;;;;;;;;21.83;37.60;99777.94;67965;1275;1017641;-75
2023/05/27 08:19:11;;;;;;;;;;;;;;;21.96;35.91;99782.45;68027;1275;1017922;-74
2023/05/27 08:22:15;;;;;;;;;;;;;;;21.68;35.21;99781.31;68017;1275;1016339;-74
2023/05/27 08:25:18;;;;;;;;;;;;;;;21.90;35.97;99773.73;67993;1275;1016139;-65
2023/05/27 08:28:26;;;;;;;;;;;;;;;22.10;34.48;99777.35;67998;1275;1016404;-74
2023/05/27 08:31:29;;;;;;;;;;;;;;;22.12;35.19;99780.78;67937;1275;1016390;-72
2023/05/27 08:34:31;;;;;;;;;;;;;;;22.38;35.54;99779.98;67985;1275;1016785;-74
2023/05/27 08:37:34;;;;;;;;;;;;;;;22.50;34.31;99781.52;67972;1275;1016563;-74
2023/05/27 08:40:37;;;;;;;;;;;;;;;22.58;34.03;99779.48;67897;1275;1016356;-74
2023/05/27 08:43:40;;;;;;;;;;;;;;;22.60;34.35;99776.81;68022;1275;1016044;-75
2023/05/27 08:46:43;;;;;;;;;;;;;;;22.29;32.78;99778.48;67915;1275;1018376;-74
2023/05/27 08:49:45;;;;;;;;;;;;;;;22.28;34.12;99775.70;67892;1275;1016627;-64
2023/05/27 08:52:48;;;;;;;;;;;;;;;22.38;34.06;99781.39;67971;1275;1016274;-64
2023/05/27 08:55:55;;;;;;;;;;;;;;;22.47;33.54;99779.45;67951;1275;1017279;-73
2023/05/27 08:58:58;;;;;;;;;;;;;;;22.40;33.84;99782.30;67984;1275;1016541;-69
2023/05/27 09:02:02;;;;;;;;;;;;;;;22.26;33.92;99784.42;67969;1275;1017238;-74
2023/05/27 09:05:06;;;;;;;;;;;;;;;22.42;33.29;99775.48;67945;1275;1016425;-63
2023/05/27 09:08:10;;;;;;;;;;;;;;;22.81;33.81;99769.10;67953;1275;1016238;-73
2023/05/27 09:11:13;;;;;;;;;;;;;;;22.82;33.22;99766.70;67948;1275;1016469;-74
2023/05/27 09:14:16;;;;;;;;;;;;;;;22.71;33.77;99768.62;68001;1275;1016338;-71
2023/05/27 09:17:20;;;;;;;;;;;;;;;22.70;35.00;99766.21;68002;1275;1016351;-64
2023/05/27 09:20:24;;;;;;;;;;;;;;;22.86;34.66;99761.77;68021;1275;1016434;-74
2023/05/27 09:23:28;;;;;;;;;;;;;;;23.19;33.93;99763.95;68013;1275;1016343;-69
2023/05/27 09:26:31;;;;;;;;;;;;;;;23.23;33.76;99750.38;67970;1275;1016290;-74
2023/05/27 09:29:35;;;;;;;;;;;;;;;23.23;33.75;99759.63;67995;1275;1016284;-75
2023/05/27 09:32:39;;;;;;;;;;;;;;;23.13;34.44;99753.84;67854;1275;1016257;-63
2023/05/27 09:35:42;;;;;;;;;;;;;;;23.03;33.69;99755.68;68021;1275;1016415;-75
2023/05/27 09:38:48;;;;;;;;;;;;;;;23.10;33.52;99754.15;67988;1275;1017073;-70
2023/05/27 09:41:52;;;;;;;;;;;;;;;22.95;32.77;99753.66;67958;1275;1016337;-73
2023/05/27 09:44:56;;;;;;;;;;;;;;;23.15;32.01;99747.00;67952;1275;1016388;-75
2023/05/27 09:47:59;;;;;;;;;;;;;;;23.84;32.58;99741.73;67999;1275;1016426;-74
2023/05/27 09:51:02;;;;;;;;;;;;;;;23.93;32.07;99742.68;67976;1275;1016229;-75
2023/05/27 09:54:06;;;;;;;;;;;;;;;23.61;32.59;99737.44;67971;1275;1016389;-75
2023/05/27 09:57:09;;;;;;;;;;;;;;;24.26;32.70;99738.14;67997;1275;1015758;-63
2023/05/27 10:00:13;;;;;;;;;;;;;;;24.42;32.48;99741.17;67979;1275;1016361;-70
2023/05/27 10:03:17;;;;;;;;;;;;;;;24.31;32.63;99741.96;67955;1275;1019163;-75
2023/05/27 10:06:20;;;;;;;;;;;;;;;24.37;31.84;99742.05;68005;1275;1016558;-74
2023/05/27 10:09:25;;;;;;;;;;;;;;;24.48;32.29;99735.97;67970;1275;1017174;-68
2023/05/27 10:12:28;;;;;;;;;;;;;;;24.44;30.98;99738.27;67945;1275;1019256;-72
2023/05/27 10:15:31;;;;;;;;;;;;;;;24.37;30.35;99734.15;67998;1275;1017238;-71
2023/05/27 10:18:35;;;;;;;;;;;;;;;24.24;31.40;99726.61;67965;1275;1016416;-74
2023/05/27 10:21:38;;;;;;;;;;;;;;;24.43;31.24;99730.39;67976;1275;1016266;-74
2023/05/27 10:24:41;;;;;;;;;;;;;;;24.62;31.34;99725.17;67981;1275;1018840;-73
2023/05/27 10:27:44;;;;;;;;;;;;;;;24.78;30.51;99724.43;68006;1275;1016256;-70
2023/05/27 10:30:47;;;;;;;;;;;;;;;24.78;30.27;99709.84;67943;1275;1015976;-66
2023/05/27 10:33:57;;;;;;;;;;;;;;;25.28;30.70;99709.05;67996;1275;1016823;-72
2023/05/27 10:37:01;;;;;;;;;;;;;;;25.44;29.72;99712.15;67962;1275;1015848;-72
2023/05/27 10:40:06;;;;;;;;;;;;;;;25.21;30.85;99705.48;67997;1275;1016895;-74
2023/05/27 10:43:09;;;;;;;;;;;;;;;25.44;30.76;99713.41;67943;1275;1016217;-73
2023/05/27 10:46:15;;;;;;;;;;;;;;;25.41;30.39;99706.56;67959;1275;1016888;-75
2023/05/27 10:49:18;;;;;;;;;;;;;;;25.67;30.18;99699.27;67955;1275;1017618;-75
2023/05/27 10:52:21;;;;;;;;;;;;;;;25.76;30.52;99699.42;67936;1275;1018864;-63
2023/05/27 10:55:24;;;;;;;;;;;;;;;25.89;29.72;99691.77;67987;1275;1016358;-75
2023/05/27 10:58:27;;;;;;;;;;;;;;;25.74;29.59;99703.46;67962;1275;1016927;-75
2023/05/27 11:01:30;;;;;;;;;;;;;;;25.49;30.23;99699.80;67943;1275;1018750;-67
2023/05/27 11:04:32;;;;;;;;;;;;;;;25.67;30.82;99695.09;67968;1275;1016291;-75
2023/05/27 11:07:35;;;;;;;;;;;;;;;25.68;30.61;99698.27;67980;1275;1016752;-64
2023/05/27 11:10:38;;;;;;;;;;;;;;;25.42;29.68;99705.55;67963;1275;1016471;-75
2023/05/27 11:13:42;;;;;;;;;;;;;;;24.86;30.25;99709.22;67970;1275;1016433;-63
2023/05/27 11:16:45;;;;;;;;;;;;;;;24.65;31.13;99708.64;67974;1275;1016318;-74
2023/05/27 11:19:49;;;;;;;;;;;;;;;25.14;31.48;99700.89;67935;1275;1018601;-76
2023/05/27 11:22:52;;;;;;;;;;;;;;;25.42;30.64;99705.50;67993;1275;1016411;-71
2023/05/27 11:25:56;;;;;;;;;;;;;;;25.53;29.72;99702.26;67978;1275;1016156;-67
2023/05/27 11:29:00;;;;;;;;;;;;;;;25.66;28.86;99701.13;67986;1275;1016475;-73
2023/05/27 11:32:03;;;;;;;;;;;;;;;25.81;28.58;99703.25;67937;1275;1016261;-75
2023/05/27 11:35:09;;;;;;;;;;;;;;;25.76;29.45;99707.33;67930;1275;1016408;-75
2023/05/27 11:38:12;;;;;;;;;;;;;;;25.90;28.88;99708.84;67930;1275;1016759;-64
2023/05/27 11:41:16;;;;;;;;;;;;;;;25.78;29.23;99706.38;67967;1275;1016825;-68
2023/05/27 11:44:20;;;;;;;;;;;;;;;25.90;29.28;99696.11;67965;1275;1019943;-67
2023/05/27 11:47:23;;;;;;;;;;;;;;;26.12;29.48;99691.98;67937;1275;1016111;-69
2023/05/27 11:50:27;;;;;;;;;;;;;;;26.03;29.84;99684.16;67973;1275;1016460;-69
2023/05/27 11:53:31;;;;;;;;;;;;;;;26.02;30.16;99678.66;67953;1275;1016427;-70
2023/05/27 11:56:33;;;;;;;;;;;;;;;26.08;30.65;99680.05;67934;1275;1016517;-65
2023/05/27 11:59:37;;;;;;;;;;;;;;;26.02;30.26;99681.58;67937;1275;1016488;-74
2023/05/27 12:02:41;;;;;;;;;;;;;;;25.80;30.17;99686.88;68006;1275;1018777;-64
2023/05/27 12:05:44;;;;;;;;;;;;;;;25.89;30.44;99675.66;67981;1275;1016339;-75
2023/05/27 12:08:48;;;;;;;;;;;;;;;26.45;31.04;99669.71;67950;1275;1016468;-75
2023/05/27 12:11:51;;;;;;;;;;;;;;;26.55;29.97;99669.69;67943;1275;1016091;-65
2023/05/27 12:14:55;;;;;;;;;;;;;;;26.68;30.50;99670.98;67973;1275;1016470;-75
2023/05/27 12:17:59;;;;;;;;;;;;;;;26.73;29.29;99663.49;65757;1275;5383817;-75
2023/05/27 12:21:02;;;;;;;;;;;;;;;26.40;30.56;99664.04;67862;1275;1016446;-75
2023/05/27 12:24:05;;;;;;;;;;;;;;;25.97;29.94;99673.35;67911;1275;1018099;-63
2023/05/27 12:27:07;;;;;;;;;;;;;;;25.92;30.98;99668.30;67935;1275;1016834;-75
2023/05/27 12:30:10;;;;;;;;;;;;;;;26.15;30.86;99670.45;67986;1275;1016258;-64
2023/05/27 12:33:14;;;;;;;;;;;;;;;26.74;30.37;99660.45;67951;1275;1017059;-75
2023/05/27 12:36:25;;;;;;;;;;;;;;;27.20;30.50;99655.14;67965;1275;1016240;-76
2023/05/27 12:39:28;;;;;;;;;;;;;;;27.22;28.93;99657.98;67978;1275;1016588;-75
2023/05/27 12:42:32;;;;;;;;;;;;;;;27.35;29.07;99656.45;67912;1275;1016487;-65
2023/05/27 12:45:36;;;;;;;;;;;;;;;27.36;28.16;99654.88;67954;1275;1016376;-76
2023/05/27 12:48:38;;;;;;;;;;;;;;;27.39;28.05;99651.30;67952;1275;1015916;-76
2023/05/27 12:51:42;;;;;;;;;;;;;;;27.79;29.28;99641.02;67935;1275;1016221;-64
2023/05/27 12:54:45;;;;;;;;;;;;;;;27.98;28.72;99641.96;67971;1275;1016613;-76
2023/05/27 12:57:48;;;;;;;;;;;;;;;27.60;28.39;99644.92;67939;1275;1016143;-75
2023/05/27 13:00:54;;;;;;;;;;;;;;;27.27;28.18;99640.14;67898;1275;1016301;-76
2023/05/27 13:04:04;;;;;;;;;;;;;;;26.47;28.91;99644.23;67902;1275;1016454;-64
2023/05/27 13:07:08;;;;;;;;;;;;;;;26.77;29.23;99638.61;67924;1275;1016363;-75
2023/05/27 13:10:11;;;;;;;;;;;;;;;27.00;29.26;99636.91;67967;1275;1016237;-68
2023/05/27 13:13:15;;;;;;;;;;;;;;;27.23;29.61;99634.69;67968;1275;1016103;-75
2023/05/27 13:16:18;;;;;;;;;;;;;;;27.19;29.54;99643.00;67900;1275;1017960;-64
2023/05/27 13:19:21;;;;;;;;;;;;;;;26.90;29.63;99641.48;67964;1275;1016300;-63
2023/05/27 13:22:24;;;;;;;;;;;;;;;26.90;29.55;99636.16;67881;1275;1016069;-73
2023/05/27 13:25:28;;;;;;;;;;;;;;;26.94;28.77;99635.94;67949;1275;1016290;-76
2023/05/27 13:28:31;;;;;;;;;;;;;;;27.08;28.83;99630.16;67949;1275;1016359;-66
2023/05/27 13:31:34;;;;;;;;;;;;;;;27.34;28.87;99633.92;67915;1275;1016059;-75
2023/05/27 13:34:37;;;;;;;;;;;;;;;27.18;28.79;99627.97;67904;1275;1016469;-74
2023/05/27 13:37:40;;;;;;;;;;;;;;;27.35;28.93;99635.81;67908;1275;1016009;-74
2023/05/27 13:40:44;;;;;;;;;;;;;;;26.68;28.87;99635.37;67809;1275;1016610;-71
2023/05/27 13:43:47;;;;;;;;;;;;;;;26.84;29.40;99629.01;67801;1275;1016061;-63
2023/05/27 13:46:50;;;;;;;;;;;;;;;27.28;28.76;99625.48;67776;1275;1016473;-74
2023/05/27 13:49:52;;;;;;;;;;;;;;;27.34;28.72;99627.36;67806;1275;1016004;-62
2023/05/27 13:52:56;;;;;;;;;;;;;;;27.33;28.84;99623.33;67781;1275;1016200;-63
2023/05/27 13:55:58;;;;;;;;;;;;;;;27.69;28.42;99624.05;67833;1275;1016647;-73
2023/05/27 13:59:03;;;;;;;;;;;;;;;27.95;28.12;99628.77;68056;1275;1016522;-76
2023/05/27 14:02:05;;;;;;;;;;;;;;;27.96;28.32;99619.17;68635;1275;1015497;-61
2023/05/27 14:05:08;;;;;;;;;;;;;;;27.56;28.20;99615.04;68637;1275;1015292;-61
2023/05/27 14:08:10;;;;;;;;;;;;;;;27.22;28.98;99610.60;68655;1275;1015299;-74
2023/05/27 14:11:14;;;;;;;;;;;;;;;27.42;28.88;99610.02;68106;1275;1016333;-63
2023/05/27 14:14:20;;;;;;;;;;;;;;;27.58;28.35;99611.14;67953;1275;1016453;-74
2023/05/27 14:17:22;;;;;;;;;;;;;;;27.56;28.85;99611.64;67953;1275;1016124;-61
2023/05/27 14:20:25;;;;;;;;;;;;;;;27.87;29.32;99603.86;67912;1275;1016445;-73
2023/05/27 14:23:28;;;;;;;;;;;;;;;28.61;27.69;99606.92;67943;1275;1018801;-60
2023/05/27 14:26:31;;;;;;;;;;;;;;;28.31;26.97;99608.06;67958;1275;1016253;-71
2023/05/27 14:29:35;;;;;;;;;;;;;;;27.44;27.78;99607.39;67947;1275;1016305;-67
2023/05/27 14:32:37;;;;;;;;;;;;;;;26.83;28.84;99603.73;67862;1275;1016364;-74
2023/05/27 14:35:39;;;;;;;;;;;;;;;26.86;28.52;99604.45;67935;1275;1016366;-60
2023/05/27 14:38:43;;;;;;;;;;;;;;;27.34;29.13;99601.30;67947;1275;1016150;-70
2023/05/27 14:41:45;;;;;;;;;;;;;;;28.13;28.55;99597.36;67933;1275;1016526;-73
2023/05/27 14:44:49;;;;;;;;;;;;;;;28.51;27.73;99595.59;67995;1275;1016269;-73
2023/05/27 14:47:51;;;;;;;;;;;;;;;28.37;27.31;99597.06;67905;1275;1016424;-66
2023/05/27 14:50:54;;;;;;;;;;;;;;;28.03;27.33;99594.77;67967;1275;1016235;-73
2023/05/27 14:53:56;;;;;;;;;;;;;;;27.83;27.33;99592.78;67980;1275;1016388;-73
2023/05/27 14:56:59;;;;;;;;;;;;;;;27.43;27.20;99587.80;67982;1275;1018220;-74
2023/05/27 15:00:01;;;;;;;;;;;;;;;27.87;27.92;99580.02;67935;1275;1016528;-68
2023/05/27 15:03:04;;;;;;;;;;;;;;;28.58;27.18;99575.41;67933;1275;1016491;-63
2023/05/27 15:06:08;;;;;;;;;;;;;;;29.26;25.77;99574.23;67956;1275;1017279;-72
2023/05/27 15:09:11;;;;;;;;;;;;;;;30.54;25.60;99569.86;67928;1275;1018687;-73
2023/05/27 15:12:14;;;;;;;;;;;;;;;31.68;24.29;99574.02;67938;1275;1016496;-72
2023/05/27 15:15:17;;;;;;;;;;;;;;;32.22;23.34;99569.10;67958;1275;1016413;-73
2023/05/27 15:18:19;;;;;;;;;;;;;;;32.79;23.33;99563.84;67941;1275;1015926;-73
2023/05/27 15:21:22;;;;;;;;;;;;;;;33.53;22.48;99561.38;67951;1275;1016479;-64
2023/05/27 15:24:25;;;;;;;;;;;;;;;34.00;22.36;99554.81;67955;1275;1016505;-65
2023/05/27 15:27:27;;;;;;;;;;;;;;;34.60;21.49;99552.64;67917;1275;1017141;-73
2023/05/27 15:30:30;;;;;;;;;;;;;;;34.36;20.43;99556.77;67946;1275;1019581;-71
2023/05/27 15:33:33;;;;;;;;;;;;;;;34.06;20.95;99550.38;67932;1275;1016210;-60
2023/05/27 15:36:36;;;;;;;;;;;;;;;34.42;20.90;99550.23;67960;1275;1016481;-61